WY1U-1 Weather Reports


time (UTC)temp
C
wind
direction
speed
KPH
gust
KPH
rain 1hr
cm
rain 24hr
cm
rain mn
cm
humidity
%
barometer
mb
20240614131644 23 189 3.2 9.7 0.00 0.00 0.00 70 1012.6
20240614125644 23 212 3.2 11.3 0.00 0.00 0.00 70 1012.8
20240614123644 22 208 4.8 11.3 0.00 0.00 0.00 71 1012.9
20240614122644 22 201 3.2 9.7 0.00 0.00 0.00 72 1012.9
20240614121644 22 216 6.4 14.5 0.00 0.00 0.00 72 1013.0
20240614120644 21 202 4.8 9.7 0.00 0.00 0.00 73 1013.0
20240614115740 21 224 4.8 11.3 0.00 0.00 0.00 74 1013.0
20240614115644 21 224 4.8 11.3 0.00 0.00 0.00 74 1013.0
20240614113644 21 241 1.6 9.7 0.00 0.00 0.00 78 1012.8
20240614112644 20 191 1.6 8.0 0.00 0.00 0.00 79 1012.7
20240614111643 20 217 3.2 9.7 0.00 0.00 0.00 81 1012.7
20240614110643 20 226 3.2 11.3 0.00 0.00 0.00 83 1012.5
20240614105644 20 187 3.2 8.0 0.00 0.00 0.00 84 1012.4
20240614104643 19 183 1.6 6.4 0.00 0.00 0.00 85 1012.5
20240614103644 19 186 1.6 6.4 0.00 0.00 0.00 86 1012.5
20240614102644 18 188 0.0 4.8 0.00 0.00 0.00 87 1012.6
20240614100643 18 194 3.2 8.0 0.00 0.00 0.00 87 1012.6
20240614095643 18 203 1.6 6.4 0.00 0.00 0.00 88 1012.5
20240614094643 18 177 1.6 4.8 0.00 0.00 0.00 88 1012.5
20240614093643 18 214 0.0 3.2 0.00 0.00 0.00 87 1012.7
20240614091644 18 199 1.6 4.8 0.00 0.00 0.00 87 1012.7
20240614090644 18 178 0.0 3.2 0.00 0.00 0.00 86 1012.7
20240614085644 18 208 0.0 3.2 0.00 0.00 0.00 86 1012.8
20240614084645 18 196 0.0 4.8 0.00 0.00 0.00 86 1012.7
20240614083643 18 176 1.6 4.8 0.00 0.00 0.00 86 1012.7
20240614082644 18 0 0.0 0.0 0.00 0.00 0.00 86 1012.7
20240614081646 18 179 0.0 8.0 0.00 0.00 0.00 86 1012.6
20240614080644 18 179 1.6 8.0 0.00 0.00 0.00 86 1012.5
20240614075643 18 179 3.2 11.3 0.00 0.00 0.00 86 1012.4
20240614074644 18 188 1.6 4.8 0.00 0.00 0.00 86 1012.5
20240614073644 18 186 1.6 8.0 0.00 0.00 0.00 85 1012.7
20240614072644 18 182 0.0 3.2 0.00 0.00 0.00 85 1012.8
20240614071644 18 184 1.6 6.4 0.00 0.00 0.00 85 1012.8
20240614070644 18 190 1.6 4.8 0.00 0.00 0.00 84 1012.9
20240614065644 18 198 1.6 6.4 0.00 0.00 0.00 84 1012.9
20240614064644 18 190 1.6 6.4 0.00 0.00 0.00 84 1013.1
20240614063643 18 201 1.6 6.4 0.00 0.00 0.00 84 1013.2
20240614061644 18 196 0.0 3.2 0.00 0.00 0.00 83 1013.2
20240614060643 18 215 0.0 4.8 0.00 0.00 0.00 82 1013.3
20240614055644 18 207 1.6 4.8 0.00 0.00 0.00 82 1013.5
20240614054644 18 212 0.0 3.2 0.00 0.00 0.00 82 1013.5
20240614053645 18 216 0.0 1.6 0.00 0.00 0.00 82 1013.7
20240614052644 19 189 0.0 3.2 0.00 0.00 0.00 82 1013.8
20240614051643 19 187 0.0 1.6 0.00 0.00 0.00 81 1014.0
20240614050644 19 216 0.0 4.8 0.00 0.00 0.00 80 1014.0
20240614045644 19 180 1.6 6.4 0.00 0.00 0.00 80 1014.1
20240614044644 19 186 1.6 6.4 0.00 0.00 0.00 80 1014.2
20240614043644 19 193 3.2 6.4 0.00 0.00 0.00 80 1014.3
20240614041643 20 200 1.6 4.8 0.00 0.00 0.00 78 1014.5
20240614040643 20 195 1.6 4.8 0.00 0.00 0.00 78 1014.7
20240614035644 20 185 1.6 4.8 0.00 0.00 0.00 77 1014.7
20240614034643 20 199 1.6 8.0 0.00 0.00 0.00 77 1014.6
20240614033643 20 194 1.6 4.8 0.00 0.00 0.00 76 1014.7
20240614031643 20 200 1.6 6.4 0.00 0.00 0.00 74 1014.6
20240614030643 21 185 3.2 8.0 0.00 0.00 0.00 73 1014.5
20240614024643 21 195 3.2 6.4 0.00 0.00 0.00 72 1014.7
20240614023643 21 210 3.2 9.7 0.00 0.00 0.00 71 1014.7
20240614022644 21 193 3.2 6.4 0.00 0.00 0.00 70 1014.9
20240614014644 22 189 4.8 12.9 0.00 0.00 0.00 67 1015.2
20240614013643 22 213 4.8 12.9 0.00 0.00 0.00 65 1015.3
20240614012643 22 188 4.8 12.9 0.00 0.00 0.00 64 1015.1
20240614011644 22 213 6.4 12.9 0.00 0.00 0.00 62 1015.0
20240614010643 22 201 4.8 11.3 0.00 0.00 0.00 60 1015.1
20240614005644 23 191 4.8 16.1 0.00 0.00 0.00 58 1015.1
20240614004644 23 198 4.8 12.9 0.00 0.00 0.00 57 1014.9
20240614003643 23 219 4.8 16.1 0.00 0.00 0.00 55 1015.0
20240614002643 24 205 3.2 6.4 0.00 0.00 0.00 54 1015.0
20240614001644 24 183 1.6 4.8 0.00 0.00 0.00 53 1015.1
20240614000643 25 197 1.6 6.4 0.00 0.00 0.00 52 1015.2
20240613235643 25 205 3.2 9.7 0.00 0.00 0.00 50 1015.2
20240613234643 25 203 4.8 11.3 0.00 0.00 0.00 49 1015.2
20240613233643 25 212 4.8 14.5 0.00 0.00 0.00 48 1015.1
20240613232643 26 212 4.8 12.9 0.00 0.00 0.00 47 1015.0
20240613231644 26 202 1.6 12.9 0.00 0.00 0.00 46 1015.0
20240613230643 26 212 6.4 14.5 0.00 0.00 0.00 45 1014.8
20240613225644 26 188 4.8 14.5 0.00 0.00 0.00 45 1014.7
20240613224643 26 189 6.4 16.1 0.00 0.00 0.00 45 1014.7
20240613223643 27 210 4.8 14.5 0.00 0.00 0.00 45 1014.7
20240613222643 27 217 4.8 14.5 0.00 0.00 0.00 44 1014.7
20240613221643 27 196 3.2 12.9 0.00 0.00 0.00 44 1014.6
20240613220644 27 210 6.4 22.5 0.00 0.00 0.00 43 1014.5
20240613214644 28 197 4.8 12.9 0.00 0.00 0.00 43 1014.5
20240613213644 27 200 6.4 16.1 0.00 0.00 0.00 43 1014.4
20240613211724 28 183 4.8 16.1 0.00 0.00 0.00 43 1014.6
20240613210643 28 183 4.8 16.1 0.00 0.00 0.00 43 1014.6
20240613205643 28 189 4.8 16.1 0.00 0.00 0.00 44 1014.7
20240613204644 28 198 4.8 17.7 0.00 0.00 0.00 46 1014.7
20240613203643 27 215 3.2 12.9 0.00 0.00 0.00 48 1014.7
20240613202643 28 195 6.4 17.7 0.00 0.00 0.00 46 1014.7
20240613201644 28 199 6.4 14.5 0.00 0.00 0.00 46 1014.8
20240613200644 28 205 6.4 22.5 0.00 0.00 0.00 46 1014.8
20240613195643 28 242 6.4 17.7 0.00 0.00 0.00 47 1015.0
20240613194644 27 218 6.4 19.3 0.00 0.00 0.00 48 1015.1
20240613193643 28 198 8.0 16.1 0.00 0.00 0.00 44 1015.1
20240613192644 29 190 6.4 22.5 0.00 0.00 0.00 41 1015.1
20240613191644 29 174 6.4 14.5 0.00 0.00 0.00 40 1015.1
20240613190933 28 181 4.8 12.9 0.00 0.00 0.00 40 1015.2
20240613190643 28 181 4.8 12.9 0.00 0.00 0.00 40 1015.2
20240613185644 28 202 4.8 12.9 0.00 0.00 0.00 41 1015.3
20240613184644 28 205 4.8 16.1 0.00 0.00 0.00 40 1015.3
20240613183644 28 212 6.4 19.3 0.00 0.00 0.00 41 1015.4
20240613182644 28 213 6.4 19.3 0.00 0.00 0.00 41 1015.4
20240613181643 29 176 3.2 12.9 0.00 0.00 0.00 42 1015.4
20240613180644 28 176 3.2 8.0 0.00 0.00 0.00 44 1015.5
20240613175644 28 181 4.8 9.7 0.00 0.00 0.00 46 1015.6
20240613174643 28 204 4.8 11.3 0.00 0.00 0.00 47 1015.6
20240613173643 28 254 3.2 11.3 0.00 0.00 0.00 46 1015.6
20240613172644 28 190 3.2 9.7 0.00 0.00 0.00 48 1015.7
20240613171644 27 148 1.6 4.8 0.00 0.00 0.00 50 1015.8
20240613162645 28 208 3.2 9.7 0.00 0.00 0.00 43 1016.3
20240613161644 27 171 1.6 8.0 0.00 0.00 0.00 43 1016.3
20240613160644 27 270 3.2 8.0 0.00 0.00 0.00 45 1016.3
20240613155643 27 288 3.2 9.7 0.00 0.00 0.00 43 1016.3
20240613154643 27 177 1.6 9.7 0.00 0.00 0.00 44 1016.3
20240613153643 27 233 1.6 4.8 0.00 0.00 0.00 45 1016.4
20240613152643 27 214 3.2 11.3 0.00 0.00 0.00 48 1016.5
20240613150643 26 174 3.2 9.7 0.00 0.00 0.00 50 1016.7
20240613145644 25 161 1.6 8.0 0.00 0.00 0.00 53 1016.8
20240613143644 25 231 3.2 6.4 0.00 0.00 0.00 58 1016.8
20240613132644 21 231 1.6 8.0 0.00 0.00 0.00 70 1017.3